TimeMST,TemperatureF,Dew PointF,Humidity,Sea Level PressureIn,VisibilityMPH,Wind Direction,Wind SpeedMPH,Gust SpeedMPH,PrecipitationIn,Events,Conditions,WindDirDegrees,DateUTC
12:53 AM,21.0,8.1,57,30.26,10.0,East,5.8,-,N/A,,Clear,80,2014-01-20 07:53:00
1:53 AM,18.0,7.0,62,30.26,10.0,East,5.8,-,N/A,,Clear,80,2014-01-20 08:53:00
2:53 AM,17.1,6.1,62,30.27,10.0,East,4.6,-,N/A,,Clear,80,2014-01-20 09:53:00
3:53 AM,17.1,7.0,65,30.27,10.0,East,6.9,-,N/A,,Clear,90,2014-01-20 10:53:00
4:53 AM,14.0,6.1,71,30.30,10.0,East,3.5,-,N/A,,Clear,90,2014-01-20 11:53:00
5:53 AM,15.1,7.0,70,30.33,10.0,East,5.8,-,N/A,,Clear,90,2014-01-20 12:53:00
6:53 AM,15.1,7.0,70,30.37,10.0,East,5.8,-,N/A,,Clear,80,2014-01-20 13:53:00
7:53 AM,19.0,10.0,68,30.38,10.0,East,6.9,-,N/A,,Clear,80,2014-01-20 14:53:00
8:53 AM,25.0,12.9,60,30.37,10.0,ESE,6.9,-,N/A,,Clear,110,2014-01-20 15:53:00
9:53 AM,28.9,14.0,54,30.38,10.0,ESE,4.6,-,N/A,,Clear,120,2014-01-20 16:53:00
10:53 AM,35.1,14.0,42,30.40,10.0,SE,4.6,-,N/A,,Clear,140,2014-01-20 17:53:00
11:53 AM,39.9,15.1,36,30.36,10.0,Variable,3.5,-,N/A,,Clear,0,2014-01-20 18:53:00
12:53 PM,45.0,15.1,30,30.33,10.0,Variable,3.5,-,N/A,,Clear,0,2014-01-20 19:53:00
1:53 PM,46.9,15.1,28,30.31,10.0,Calm,Calm,-,N/A,,Clear,0,2014-01-20 20:53:00
2:53 PM,50.0,16.0,26,30.30,10.0,West,9.2,-,N/A,,Clear,280,2014-01-20 21:53:00
3:53 PM,52.0,15.1,23,30.30,10.0,West,13.8,-,N/A,,Clear,280,2014-01-20 22:53:00
4:53 PM,48.9,15.1,26,30.33,10.0,West,12.7,-,N/A,,Clear,280,2014-01-20 23:53:00
5:53 PM,42.1,14.0,32,30.38,10.0,WSW,9.2,-,N/A,,Clear,250,2014-01-21 00:53:00
6:53 PM,39.9,14.0,35,30.40,10.0,WSW,3.5,-,N/A,,Clear,250,2014-01-21 01:53:00
7:53 PM,30.9,12.0,46,30.46,10.0,North,8.1,-,N/A,,Clear,360,2014-01-21 02:53:00
8:53 PM,28.9,12.0,49,30.48,10.0,North,5.8,-,N/A,,Clear,10,2014-01-21 03:53:00
9:53 PM,27.0,12.0,53,30.50,10.0,East,8.1,-,N/A,,Clear,80,2014-01-21 04:53:00
10:53 PM,26.1,12.0,55,30.49,10.0,East,6.9,-,N/A,,Clear,80,2014-01-21 05:53:00
11:53 PM,26.1,12.9,58,30.50,10.0,ENE,4.6,-,N/A,,Clear,70,2014-01-21 06:53:00